Time;durP1;ratioP1;P1;durP2;ratioP2;P2;SDS_P1;SDS_P2;PMS_P1;PMS_P2;Temp;Humidity;BMP_temperature;BMP_pressure;BME280_temperature;BME280_humidity;BME280_pressure;Samples;Min_cycle;Max_cycle;Signal;HPM_P1;HPM_P2
2021/06/25 00:01:24;;;;;;;5.18;4.63;;;19.10;87.50;;;;;;5050048;28;20215;-89
2021/06/25 00:03:49;;;;;;;5.65;4.57;;;19.10;86.90;;;;;;5075175;28;20190;-89
2021/06/25 00:06:15;;;;;;;4.90;4.60;;;19.00;87.60;;;;;;5074849;28;20199;-88
2021/06/25 00:08:41;;;;;;;6.50;4.55;;;18.90;88.10;;;;;;5072388;28;20191;-89
2021/06/25 00:11:06;;;;;;;5.00;4.60;;;18.80;88.80;;;;;;5060400;28;20199;-89
2021/06/25 00:13:32;;;;;;;5.55;4.95;;;18.80;88.60;;;;;;5036759;28;20277;-89
2021/06/25 00:15:58;;;;;;;5.13;4.72;;;18.80;88.70;;;;;;5068461;28;20198;-88
2021/06/25 00:18:23;;;;;;;6.57;4.75;;;18.80;89.00;;;;;;5056078;28;20206;-90
2021/06/25 00:20:49;;;;;;;5.13;4.72;;;18.60;89.40;;;;;;5058271;28;20232;-90
2021/06/25 00:23:15;;;;;;;5.70;5.18;;;18.70;89.70;;;;;;5031435;28;20213;-89
2021/06/25 00:25:41;;;;;;;5.05;4.65;;;18.50;91.60;;;;;;5049459;28;20250;-90
2021/06/25 00:28:06;;;;;;;5.20;4.70;;;18.50;90.70;;;;;;5070301;28;20205;-88
2021/06/25 00:30:32;;;;;;;6.13;4.50;;;18.60;90.30;;;;;;5058195;28;20189;-87
2021/06/25 00:32:58;;;;;;;5.90;5.20;;;18.70;90.40;;;;;;5076429;28;20182;-88
2021/06/25 00:35:24;;;;;;;6.18;5.03;;;18.70;89.60;;;;;;5070404;28;20201;-89
2021/06/25 00:37:49;;;;;;;4.88;4.57;;;18.60;89.60;;;;;;5067781;28;20206;-90
2021/06/25 00:40:16;;;;;;;5.05;4.65;;;18.60;90.00;;;;;;5067386;28;20211;-89
2021/06/25 00:42:41;;;;;;;4.82;4.53;;;18.50;89.90;;;;;;5070474;28;20183;-88
2021/06/25 00:45:14;;;;;;;5.53;5.03;;;18.60;90.40;;;;;;5053320;28;20190;-88
2021/06/25 00:47:42;;;;;;;5.70;5.30;;;18.60;89.80;;;;;;5067946;28;20207;-91
2021/06/25 00:50:09;;;;;;;6.43;5.68;;;18.50;90.50;;;;;;5069665;28;20255;-90
2021/06/25 00:52:35;;;;;;;6.80;6.18;;;18.60;90.50;;;;;;5066907;28;20188;-90
2021/06/25 00:55:00;;;;;;;6.68;6.10;;;18.60;90.30;;;;;;5065762;28;20194;-91
2021/06/25 00:57:26;;;;;;;6.55;5.95;;;18.50;90.80;;;;;;5031355;28;20235;-91
2021/06/25 00:59:52;;;;;;;7.53;6.82;;;18.50;90.80;;;;;;5065900;28;20187;-87
2021/06/25 01:02:17;;;;;;;6.25;5.70;;;18.40;91.80;;;;;;5069177;28;20215;-90
2021/06/25 01:04:43;;;;;;;6.35;5.85;;;18.40;92.30;;;;;;5069121;28;20193;-90
2021/06/25 01:07:10;;;;;;;6.13;5.63;;;18.40;92.40;;;;;;5070118;28;20193;-92
2021/06/25 01:09:37;;;;;;;6.78;6.18;;;18.40;93.60;;;;;;5034914;28;20194;-91
2021/06/25 01:12:06;;;;;;;6.55;5.95;;;18.30;93.00;;;;;;5068482;28;20289;-91
2021/06/25 01:14:33;;;;;;;6.35;5.85;;;18.30;93.20;;;;;;5067427;28;20256;-92
2021/06/25 01:16:59;;;;;;;6.70;6.10;;;18.30;93.20;;;;;;5066574;28;20206;-91
2021/06/25 01:19:25;;;;;;;5.88;5.38;;;18.30;93.30;;;;;;5050166;28;20196;-91
2021/06/25 01:21:51;;;;;;;6.47;5.50;;;18.30;93.70;;;;;;5083096;28;20210;-91
2021/06/25 01:24:16;;;;;;;5.53;5.13;;;18.40;93.20;;;;;;5065646;28;20216;-92
2021/06/25 01:26:42;;;;;;;6.43;5.82;;;18.40;93.20;;;;;;5033922;28;20262;-90
2021/06/25 01:29:08;;;;;;;6.47;5.88;;;18.40;93.50;;;;;;5067307;28;20184;-92
2021/06/25 01:31:34;;;;;;;6.28;5.70;;;18.50;93.70;;;;;;5065522;28;20205;-92
2021/06/25 01:34:02;;;;;;;6.40;5.90;;;18.50;93.90;;;;;;5046510;28;20191;-92
2021/06/25 01:36:29;;;;;;;6.18;5.65;;;18.60;94.40;;;;;;5063309;28;20228;-92
2021/06/25 01:38:56;;;;;;;6.55;5.65;;;18.50;93.70;;;;;;5044463;28;20195;-92
2021/06/25 01:41:21;;;;;;;7.55;6.38;;;18.50;94.60;;;;;;5063007;28;20203;-91
2021/06/25 01:43:49;;;;;;;7.32;6.65;;;18.50;93.60;;;;;;5062377;28;20184;-91
2021/06/25 01:46:16;;;;;;;6.63;6.03;;;18.50;94.90;;;;;;5039811;28;20276;-92
2021/06/25 01:48:41;;;;;;;6.45;5.88;;;18.50;94.60;;;;;;5059993;28;20176;-89
2021/06/25 01:51:07;;;;;;;6.68;6.13;;;18.50;94.80;;;;;;5046411;28;20206;-92
2021/06/25 01:53:33;;;;;;;6.25;5.85;;;18.50;94.90;;;;;;5046380;28;20192;-91
2021/06/25 01:56:01;;;;;;;10.05;6.68;;;18.50;94.80;;;;;;5064621;28;20192;-90
2021/06/25 01:58:28;;;;;;;8.43;7.22;;;18.50;95.10;;;;;;5057781;28;20187;-93
2021/06/25 02:01:14;;;;;;;9.85;7.28;;;18.60;95.10;;;;;;5047058;28;20691;-93
2021/06/25 02:03:40;;;;;;;8.85;7.75;;;18.60;94.50;;;;;;5065926;28;20184;-89
2021/06/25 02:06:07;;;;;;;8.38;7.68;;;18.50;94.80;;;;;;5027433;28;20184;-91
2021/06/25 02:08:33;;;;;;;9.05;7.70;;;18.50;95.10;;;;;;5045528;28;20178;-93
2021/06/25 02:11:00;;;;;;;8.90;8.20;;;18.60;94.50;;;;;;5064555;28;20201;-92
2021/06/25 02:13:25;;;;;;;9.52;8.57;;;18.50;94.70;;;;;;5047639;28;20187;-91
2021/06/25 02:15:51;;;;;;;9.65;8.85;;;18.50;95.70;;;;;;5051127;28;20247;-90
2021/06/25 02:18:18;;;;;;;10.55;9.63;;;18.40;95.70;;;;;;5077801;28;20209;-90
2021/06/25 02:20:44;;;;;;;11.55;10.45;;;18.50;95.30;;;;;;5078242;28;20194;-90
2021/06/25 02:23:10;;;;;;;10.25;9.20;;;18.50;95.30;;;;;;5078576;28;20178;-91
2021/06/25 02:25:36;;;;;;;11.15;10.15;;;18.30;97.10;;;;;;5073498;28;20186;-91
2021/06/25 02:28:02;;;;;;;12.73;11.60;;;18.20;96.70;;;;;;5066575;28;20205;-90
2021/06/25 02:30:28;;;;;;;11.52;10.73;;;18.20;97.10;;;;;;5065697;28;20187;-92
2021/06/25 02:32:53;;;;;;;12.80;11.52;;;18.10;97.40;;;;;;5065072;28;20704;-93
2021/06/25 02:35:19;;;;;;;12.70;11.50;;;18.20;97.50;;;;;;5017826;28;20194;-93
2021/06/25 02:37:45;;;;;;;11.68;10.68;;;18.20;98.10;;;;;;5064626;28;20213;-92
2021/06/25 02:40:13;;;;;;;11.60;10.50;;;18.10;98.00;;;;;;5064743;28;20223;-91
2021/06/25 02:42:39;;;;;;;11.07;10.07;;;18.20;96.50;;;;;;5063797;28;20168;-92
2021/06/25 02:45:05;;;;;;;12.32;11.00;;;18.40;97.00;;;;;;5064062;28;20191;-90
2021/06/25 02:47:33;;;;;;;11.50;10.40;;;18.40;96.60;;;;;;5063911;28;20211;-91
2021/06/25 02:49:59;;;;;;;11.80;10.70;;;18.40;96.40;;;;;;5046453;28;20188;-91
2021/06/25 02:52:25;;;;;;;11.98;11.05;;;18.30;96.20;;;;;;5065600;28;20187;-92
2021/06/25 02:54:51;;;;;;;11.88;10.77;;;18.40;96.30;;;;;;5064880;28;20183;-91
2021/06/25 02:57:16;;;;;;;13.27;12.07;;;18.30;96.90;;;;;;5074370;28;20222;-89
2021/06/25 02:59:42;;;;;;;12.35;11.23;;;18.20;97.60;;;;;;5078793;28;20182;-89
2021/06/25 03:02:08;;;;;;;11.73;10.82;;;18.20;97.40;;;;;;5072372;28;20304;-91
2021/06/25 03:04:34;;;;;;;12.25;11.07;;;18.30;96.40;;;;;;5036097;28;20276;-91
2021/06/25 03:07:00;;;;;;;12.93;11.63;;;18.20;96.80;;;;;;5043135;28;20206;-91
2021/06/25 03:09:26;;;;;;;12.48;11.23;;;18.10;97.10;;;;;;5057461;28;20266;-90
2021/06/25 03:11:51;;;;;;;12.03;10.83;;;18.10;97.30;;;;;;5064165;28;20258;-91
2021/06/25 03:14:17;;;;;;;12.55;11.45;;;18.00;97.60;;;;;;5045358;28;20193;-91
2021/06/25 03:16:43;;;;;;;14.03;12.60;;;18.00;97.20;;;;;;5045522;28;20201;-91
2021/06/25 03:19:08;;;;;;;14.50;13.10;;;17.90;98.10;;;;;;5047656;28;20205;-93
2021/06/25 03:21:34;;;;;;;13.25;12.02;;;18.00;98.20;;;;;;5046000;28;20206;-91
2021/06/25 03:24:00;;;;;;;12.05;10.95;;;18.10;98.30;;;;;;5064690;28;20685;-91
2021/06/25 03:26:26;;;;;;;12.65;11.35;;;18.00;98.00;;;;;;5044968;28;20206;-91
2021/06/25 03:28:51;;;;;;;12.00;10.82;;;18.00;97.70;;;;;;5063717;28;20185;-90
2021/06/25 03:31:19;;;;;;;12.38;10.98;;;17.90;98.90;;;;;;5062649;28;20201;-91
2021/06/25 03:33:45;;;;;;;11.50;10.50;;;18.00;97.60;;;;;;5046226;28;20185;-92
2021/06/25 03:36:10;;;;;;;11.97;10.77;;;17.90;98.20;;;;;;5062788;28;20209;-92
2021/06/25 03:38:36;;;;;;;11.77;10.77;;;18.10;98.00;;;;;;5045924;28;20194;-90
2021/06/25 03:41:02;;;;;;;12.25;11.15;;;18.10;98.10;;;;;;5063030;28;20202;-91
2021/06/25 03:43:27;;;;;;;12.43;11.33;;;18.00;97.80;;;;;;5045321;28;20218;-89
2021/06/25 03:45:53;;;;;;;12.93;11.67;;;17.90;98.70;;;;;;5028808;28;20185;-89
2021/06/25 03:48:19;;;;;;;13.60;12.33;;;17.90;99.20;;;;;;5045187;28;20927;-90
2021/06/25 03:50:44;;;;;;;14.93;12.90;;;17.80;99.80;;;;;;5063374;28;20197;-90
2021/06/25 03:53:10;;;;;;;15.20;13.70;;;17.90;98.60;;;;;;5062738;28;20258;-91
2021/06/25 03:55:36;;;;;;;15.60;14.00;;;17.90;98.80;;;;;;5062917;28;20197;-90
2021/06/25 03:58:11;;;;;;;15.33;13.83;;;17.70;99.90;;;;;;5066121;28;20212;-93
2021/06/25 04:00:37;;;;;;;16.07;14.43;;;17.80;99.60;;;;;;5043953;28;20214;-90
2021/06/25 04:03:03;;;;;;;16.57;14.80;;;17.90;99.30;;;;;;5063710;28;20208;-94
2021/06/25 04:05:28;;;;;;;16.07;14.57;;;17.80;99.70;;;;;;5057555;28;20177;-92
2021/06/25 04:07:54;;;;;;;14.87;13.57;;;17.80;99.60;;;;;;5075204;28;20193;-91
2021/06/25 04:10:20;;;;;;;15.60;14.13;;;17.80;99.30;;;;;;5042359;28;20172;-92
2021/06/25 04:12:46;;;;;;;15.15;13.65;;;17.90;99.60;;;;;;5041751;28;20190;-94
2021/06/25 04:15:12;;;;;;;16.00;14.40;;;18.00;99.60;;;;;;5042536;28;20174;-92
2021/06/25 04:17:37;;;;;;;17.73;15.90;;;18.00;98.20;;;;;;5076300;28;20190;-92
2021/06/25 04:20:04;;;;;;;18.02;16.25;;;18.00;98.20;;;;;;5076166;28;20169;-92
2021/06/25 04:22:30;;;;;;;17.33;15.63;;;17.90;99.00;;;;;;5076106;28;20180;-92
2021/06/25 04:24:56;;;;;;;20.67;15.93;;;17.90;99.30;;;;;;5056855;28;20190;-92
2021/06/25 04:27:21;;;;;;;18.27;16.48;;;17.80;99.40;;;;;;5072861;28;20195;-93
2021/06/25 04:29:47;;;;;;;20.45;18.42;;;17.70;99.90;;;;;;5068518;28;20177;-92
2021/06/25 04:32:16;;;;;;;20.40;18.27;;;17.70;99.90;;;;;;5049217;28;20245;-93
2021/06/25 04:34:41;;;;;;;21.27;18.97;;;17.70;99.90;;;;;;5067503;28;20188;-92
2021/06/25 04:37:07;;;;;;;20.27;18.13;;;17.80;99.00;;;;;;5071992;28;20205;-91
2021/06/25 04:39:33;;;;;;;19.70;17.73;;;17.80;99.80;;;;;;5058095;28;20236;-91
2021/06/25 04:41:58;;;;;;;22.57;20.20;;;17.80;99.10;;;;;;5075393;28;20219;-92
2021/06/25 04:44:24;;;;;;;21.87;19.73;;;17.80;99.20;;;;;;5075037;28;20171;-92
2021/06/25 04:46:50;;;;;;;22.20;19.97;;;17.80;99.70;;;;;;5070878;28;20220;-93
2021/06/25 04:49:15;;;;;;;24.03;21.60;;;17.90;99.40;;;;;;5064932;28;20181;-92
2021/06/25 04:51:41;;;;;;;24.03;21.63;;;17.90;99.10;;;;;;5068877;28;20194;-91
2021/06/25 04:54:07;;;;;;;24.60;22.10;;;17.80;99.90;;;;;;5071624;28;20252;-91
2021/06/25 04:56:32;;;;;;;25.03;22.33;;;17.70;99.90;;;;;;5055888;28;20242;-93
2021/06/25 04:58:58;;;;;;;27.00;23.53;;;17.80;99.90;;;;;;5054248;28;20197;-90
2021/06/25 05:01:24;;;;;;;26.20;23.43;;;17.70;99.90;;;;;;5053182;28;20200;-91
2021/06/25 05:03:50;;;;;;;26.77;23.63;;;17.60;99.90;;;;;;5070171;28;20195;-92
2021/06/25 05:06:15;;;;;;;27.50;24.53;;;17.60;99.90;;;;;;5052705;28;20194;-90
2021/06/25 05:08:41;;;;;;;25.53;22.93;;;17.70;99.90;;;;;;5071567;28;20185;-91
2021/06/25 05:11:07;;;;;;;26.40;23.63;;;17.80;99.90;;;;;;5066279;28;20241;-93
2021/06/25 05:13:33;;;;;;;25.80;23.07;;;17.80;99.90;;;;;;5071683;28;20234;-90
2021/06/25 05:15:59;;;;;;;26.97;24.07;;;17.80;99.90;;;;;;5070415;28;20183;-90
2021/06/25 05:18:25;;;;;;;28.53;25.57;;;17.80;99.90;;;;;;5074622;28;20203;-92
2021/06/25 05:20:52;;;;;;;27.05;24.15;;;17.80;99.90;;;;;;5053637;28;20210;-90
2021/06/25 05:23:19;;;;;;;26.03;23.33;;;17.80;99.90;;;;;;5074298;28;20181;-92
2021/06/25 05:25:45;;;;;;;25.63;23.03;;;17.80;99.90;;;;;;5075723;28;20190;-91
2021/06/25 05:28:12;;;;;;;24.88;22.30;;;17.90;99.90;;;;;;5074584;28;20199;-92
2021/06/25 05:30:38;;;;;;;24.88;22.50;;;18.00;99.80;;;;;;5060386;28;20193;-94
2021/06/25 05:33:05;;;;;;;25.73;23.10;;;17.90;99.90;;;;;;5060882;28;20186;-92
2021/06/25 05:35:33;;;;;;;25.57;22.87;;;17.90;99.90;;;;;;5059694;28;20184;-92
2021/06/25 05:38:01;;;;;;;24.70;22.30;;;17.80;99.70;;;;;;5059719;28;20267;-94
2021/06/25 05:40:27;;;;;;;23.13;20.73;;;17.80;99.90;;;;;;5041740;28;20198;-92
2021/06/25 05:42:53;;;;;;;23.07;20.70;;;17.80;99.90;;;;;;5042440;28;20203;-90
2021/06/25 05:45:19;;;;;;;23.00;20.73;;;17.80;99.90;;;;;;5038463;28;20221;-91
2021/06/25 05:47:45;;;;;;;22.23;20.05;;;17.70;99.90;;;;;;5043289;28;20201;-92
2021/06/25 05:50:11;;;;;;;21.60;19.40;;;17.60;99.90;;;;;;5065728;28;20177;-93
2021/06/25 05:52:37;;;;;;;22.20;20.03;;;17.60;99.90;;;;;;5063028;28;20181;-92
2021/06/25 05:55:04;;;;;;;20.90;18.97;;;17.60;99.90;;;;;;5062748;28;20190;-92
2021/06/25 05:57:29;;;;;;;19.63;17.73;;;17.70;99.90;;;;;;5063511;28;20299;-91
2021/06/25 05:59:55;;;;;;;19.93;18.07;;;17.60;99.90;;;;;;5045281;28;20319;-92
2021/06/25 06:02:21;;;;;;;18.83;16.83;;;17.60;99.90;;;;;;5043838;28;20290;-91
2021/06/25 06:04:47;;;;;;;17.35;15.60;;;17.60;99.90;;;;;;5046588;28;20196;-92
2021/06/25 06:07:13;;;;;;;16.53;14.80;;;17.70;99.90;;;;;;5045990;28;20196;-91
2021/06/25 06:09:39;;;;;;;15.83;14.37;;;17.70;99.70;;;;;;5074918;28;20247;-92
2021/06/25 06:12:05;;;;;;;15.70;14.20;;;17.60;99.50;;;;;;5039726;28;20211;-94
2021/06/25 06:14:31;;;;;;;14.67;13.23;;;17.60;99.90;;;;;;5068196;28;20211;-94
2021/06/25 06:16:57;;;;;;;14.20;12.90;;;17.60;99.90;;;;;;5064524;28;20197;-91
2021/06/25 06:19:23;;;;;;;14.10;12.73;;;17.60;99.30;;;;;;5046404;28;20193;-94
2021/06/25 06:33:05;;;;;;;12.07;10.87;;;17.60;99.90;;;;;;5058731;28;20197;-92
2021/06/25 06:35:31;;;;;;;9.43;8.53;;;17.70;99.80;;;;;;5053094;28;20252;-93
2021/06/25 06:38:02;;;;;;;9.57;8.70;;;17.60;99.90;;;;;;5067004;28;20197;-93
2021/06/25 06:40:28;;;;;;;9.90;9.00;;;17.70;99.90;;;;;;5068584;28;20208;-93
2021/06/25 06:42:54;;;;;;;9.63;8.63;;;17.60;99.90;;;;;;5077171;28;20175;-93
2021/06/25 06:45:20;;;;;;;8.77;8.03;;;17.60;99.90;;;;;;5074534;28;20255;-93
2021/06/25 06:47:46;;;;;;;8.33;7.63;;;17.50;99.90;;;;;;5067860;28;20241;-92
2021/06/25 06:50:13;;;;;;;7.60;6.90;;;17.40;99.80;;;;;;5072784;28;20184;-93
2021/06/25 06:52:44;;;;;;;7.83;7.13;;;17.40;99.20;;;;;;5069573;28;20229;-92
2021/06/25 06:55:12;;;;;;;8.20;7.50;;;17.30;99.40;;;;;;5076182;28;20234;-90
2021/06/25 06:57:38;;;;;;;6.90;6.40;;;17.30;99.80;;;;;;5080055;28;20200;-91
2021/06/25 07:00:05;;;;;;;7.97;7.13;;;17.20;99.90;;;;;;5061184;28;20183;-90
2021/06/25 07:02:31;;;;;;;7.73;7.03;;;17.20;99.90;;;;;;5078724;28;20202;-92
2021/06/25 07:04:56;;;;;;;7.73;7.03;;;17.20;99.90;;;;;;5050882;28;20198;-93
2021/06/25 07:07:22;;;;;;;7.07;6.47;;;17.20;99.90;;;;;;5051080;28;20218;-93
2021/06/25 07:09:48;;;;;;;7.50;6.80;;;17.30;99.90;;;;;;5050119;28;20573;-90
2021/06/25 07:12:14;;;;;;;6.70;6.10;;;17.30;99.50;;;;;;5073112;28;20206;-91
2021/06/25 07:14:39;;;;;;;6.33;5.83;;;17.40;99.80;;;;;;5048365;28;20188;-91
2021/06/25 07:17:05;;;;;;;6.33;5.80;;;17.30;99.90;;;;;;5068171;28;20215;-91
2021/06/25 07:19:31;;;;;;;6.57;5.97;;;17.30;99.90;;;;;;5064164;28;20223;-90
2021/06/25 07:21:57;;;;;;;6.00;5.40;;;17.30;99.90;;;;;;5068867;28;20248;-90
2021/06/25 07:24:23;;;;;;;5.53;5.00;;;17.30;99.60;;;;;;5071732;28;20242;-91
2021/06/25 07:26:48;;;;;;;7.00;5.00;;;17.40;99.90;;;;;;5063876;28;20235;-91
2021/06/25 07:29:15;;;;;;;5.67;5.10;;;17.40;99.90;;;;;;5049004;28;20219;-91
2021/06/25 07:31:41;;;;;;;5.33;4.93;;;17.30;99.90;;;;;;5052185;28;20396;-92
2021/06/25 07:34:07;;;;;;;6.03;5.43;;;17.30;99.90;;;;;;5069426;28;20191;-90
2021/06/25 07:36:33;;;;;;;5.87;4.80;;;17.20;99.90;;;;;;5062701;28;20214;-89
2021/06/25 07:38:59;;;;;;;5.00;4.60;;;17.20;99.90;;;;;;5063424;28;20200;-89
2021/06/25 07:41:24;;;;;;;5.53;5.03;;;17.30;99.90;;;;;;5077384;28;20191;-90
2021/06/25 07:43:50;;;;;;;4.97;4.53;;;17.30;99.90;;;;;;5060418;28;20185;-88
2021/06/25 07:46:16;;;;;;;5.13;4.70;;;17.30;99.90;;;;;;5068894;28;20199;-89
2021/06/25 07:48:42;;;;;;;5.33;4.77;;;17.30;99.90;;;;;;5080112;28;20168;-88
2021/06/25 07:51:08;;;;;;;6.63;4.43;;;17.40;99.90;;;;;;5086272;28;20177;-88
2021/06/25 07:53:34;;;;;;;5.07;4.27;;;17.30;99.90;;;;;;5076970;28;20163;-89
2021/06/25 07:55:59;;;;;;;5.07;4.60;;;17.30;99.30;;;;;;5054495;28;20207;-90
2021/06/25 07:58:25;;;;;;;7.23;4.93;;;17.30;99.90;;;;;;5054074;28;20211;-90
2021/06/25 08:00:51;;;;;;;6.13;4.77;;;17.20;99.20;;;;;;5068864;28;20238;-93
2021/06/25 08:03:17;;;;;;;6.73;5.33;;;17.30;99.90;;;;;;5074210;28;20203;-93
2021/06/25 08:05:42;;;;;;;5.43;4.93;;;17.30;99.90;;;;;;5075740;28;20184;-92
2021/06/25 08:08:08;;;;;;;5.57;5.17;;;17.40;98.30;;;;;;5074082;28;20200;-92
2021/06/25 08:10:34;;;;;;;5.80;5.30;;;17.50;99.00;;;;;;5075988;28;20190;-91
2021/06/25 08:13:00;;;;;;;5.80;5.30;;;17.30;98.50;;;;;;5062640;28;20243;-91
2021/06/25 08:15:26;;;;;;;6.50;5.57;;;17.40;98.50;;;;;;5084230;28;20174;-91
2021/06/25 08:17:52;;;;;;;6.53;5.83;;;17.40;99.20;;;;;;5075968;28;20216;-92
2021/06/25 08:20:18;;;;;;;7.97;6.30;;;17.40;98.90;;;;;;5046297;28;20195;-91
2021/06/25 08:22:43;;;;;;;6.33;5.83;;;17.40;99.80;;;;;;5066361;28;20316;-91
2021/06/25 08:25:10;;;;;;;6.67;6.07;;;17.40;99.40;;;;;;5067238;28;20187;-92
2021/06/25 08:27:35;;;;;;;6.63;5.93;;;17.40;98.60;;;;;;5065199;28;20278;-91
2021/06/25 08:30:03;;;;;;;6.63;5.93;;;17.40;99.50;;;;;;5050025;28;20226;-92
2021/06/25 08:32:29;;;;;;;6.70;6.10;;;17.30;99.40;;;;;;5062581;28;20180;-91
2021/06/25 08:34:55;;;;;;;7.37;6.73;;;17.40;99.80;;;;;;5069644;28;20691;-90
2021/06/25 08:37:20;;;;;;;8.10;6.83;;;17.40;99.10;;;;;;5042776;28;20311;-91
2021/06/25 08:39:46;;;;;;;7.27;6.57;;;17.40;99.00;;;;;;5045579;28;20282;-91
2021/06/25 08:42:15;;;;;;;7.57;6.87;;;17.40;99.10;;;;;;5033804;28;20587;-91
2021/06/25 08:44:41;;;;;;;8.10;7.40;;;17.40;99.10;;;;;;5046535;28;20185;-90
2021/06/25 08:47:08;;;;;;;8.53;7.73;;;17.30;99.90;;;;;;5050616;28;20201;-91
2021/06/25 08:49:36;;;;;;;7.77;7.00;;;17.30;99.90;;;;;;5051808;28;20251;-92
2021/06/25 08:52:03;;;;;;;8.43;7.70;;;17.30;99.90;;;;;;5067300;28;20542;-93
2021/06/25 08:54:29;;;;;;;7.47;6.87;;;17.30;99.90;;;;;;5069716;28;20222;-91
2021/06/25 08:56:57;;;;;;;7.40;6.80;;;17.20;99.90;;;;;;5050435;28;20211;-91
2021/06/25 08:59:23;;;;;;;9.13;7.33;;;17.20;99.90;;;;;;5047118;28;20201;-92
2021/06/25 09:01:50;;;;;;;7.20;6.63;;;17.30;99.90;;;;;;5067916;28;20211;-93
2021/06/25 09:04:29;;;;;;;8.30;7.07;;;17.40;99.90;;;;;;5057273;28;20756;-92
2021/06/25 09:06:55;;;;;;;7.47;6.80;;;17.50;99.90;;;;;;5052789;28;20219;-91
2021/06/25 09:09:21;;;;;;;7.43;6.90;;;17.70;99.90;;;;;;5057895;28;20250;-91
2021/06/25 09:12:13;;;;;;;7.73;6.97;;;17.80;99.50;;;;;;5051276;28;20268;-92
2021/06/25 09:15:05;;;;;;;7.40;6.80;;;17.70;99.90;;;;;;5067032;28;20190;-92
2021/06/25 09:17:33;;;;;;;7.50;6.90;;;17.90;98.90;;;;;;5053663;28;20204;-92
2021/06/25 09:19:59;;;;;;;7.80;7.17;;;17.80;99.30;;;;;;5062501;28;20184;-91
2021/06/25 09:22:25;;;;;;;7.43;6.73;;;17.80;98.80;;;;;;5069670;28;20263;-90
2021/06/25 09:25:05;;;;;;;7.73;7.00;;;17.70;99.90;;;;;;5066111;28;20639;-91
2021/06/25 09:27:33;;;;;;;8.63;7.23;;;17.70;98.50;;;;;;5060889;28;22046;-91
2021/06/25 09:30:05;;;;;;;7.27;6.60;;;17.40;99.60;;;;;;5036367;28;20581;-91
2021/06/25 09:32:38;;;;;;;7.30;6.70;;;17.50;98.80;;;;;;5076760;28;20249;-91
2021/06/25 09:35:33;;;;;;;8.30;7.37;;;17.50;99.60;;;;;;5059588;28;20233;-91
2021/06/25 09:37:59;;;;;;;7.93;7.23;;;17.60;99.70;;;;;;5037661;28;20899;-91
2021/06/25 09:40:36;;;;;;;10.13;9.23;;;17.70;99.90;;;;;;5063895;28;20207;-91
2021/06/25 09:43:13;;;;;;;11.20;10.10;;;17.60;99.90;;;;;;5070450;28;20260;-91
2021/06/25 09:45:49;;;;;;;11.80;10.77;;;17.60;99.90;;;;;;5075022;28;20190;-92
2021/06/25 09:48:15;;;;;;;12.73;11.53;;;17.50;99.90;;;;;;5069682;28;20230;-92
2021/06/25 09:50:43;;;;;;;14.53;13.03;;;17.60;99.90;;;;;;5051819;28;20207;-91
2021/06/25 09:53:09;;;;;;;15.87;14.37;;;17.60;99.90;;;;;;5064372;28;20509;-91
2021/06/25 09:55:56;;;;;;;15.90;14.50;;;17.70;99.90;;;;;;5073237;28;20200;-90
2021/06/25 09:58:43;;;;;;;16.97;15.30;;;17.60;99.90;;;;;;5052201;28;20215;-91
2021/06/25 10:01:25;;;;;;;17.27;15.67;;;17.60;99.90;;;;;;5068917;28;20207;-92
2021/06/25 10:03:59;;;;;;;18.40;16.60;;;17.70;99.90;;;;;;5062809;28;20192;-91
2021/06/25 10:06:28;;;;;;;16.93;15.23;;;17.70;99.90;;;;;;5057643;28;20233;-92
2021/06/25 10:08:54;;;;;;;15.60;14.23;;;17.80;99.90;;;;;;5045409;28;20192;-90
2021/06/25 10:11:25;;;;;;;16.70;15.20;;;17.90;99.90;;;;;;5067418;28;20208;-91
2021/06/25 10:13:53;;;;;;;16.03;14.53;;;17.90;99.90;;;;;;5073469;28;20243;-89
2021/06/25 10:16:20;;;;;;;16.57;15.13;;;17.90;99.90;;;;;;5071925;28;20195;-89
2021/06/25 10:18:49;;;;;;;16.70;15.13;;;17.90;99.90;;;;;;5078755;28;20169;-89
2021/06/25 10:21:18;;;;;;;17.67;16.17;;;17.70;99.50;;;;;;5076363;28;20785;-91
2021/06/25 10:24:04;;;;;;;18.43;16.67;;;17.70;99.90;;;;;;5065699;28;20234;-90
2021/06/25 10:26:31;;;;;;;18.07;16.17;;;17.80;99.90;;;;;;5035796;28;20228;-91
2021/06/25 10:28:57;;;;;;;17.67;15.87;;;17.80;99.90;;;;;;5064273;28;20194;-91
2021/06/25 10:31:25;;;;;;;18.70;17.00;;;17.80;99.50;;;;;;5071073;28;20183;-90
2021/06/25 10:33:52;;;;;;;17.77;16.27;;;17.80;99.90;;;;;;5049172;28;20233;-93
2021/06/25 10:36:22;;;;;;;18.27;16.60;;;17.90;99.70;;;;;;5050195;28;20675;-92
2021/06/25 10:38:49;;;;;;;20.50;18.70;;;17.80;99.20;;;;;;5047831;28;20197;-91
2021/06/25 10:41:17;;;;;;;20.40;18.43;;;17.60;99.90;;;;;;5051718;28;20238;-92
2021/06/25 10:43:48;;;;;;;20.03;18.23;;;17.60;99.90;;;;;;5050811;28;20183;-92
2021/06/25 10:46:34;;;;;;;20.17;18.37;;;17.70;99.90;;;;;;5070116;28;20184;-91
2021/06/25 10:49:09;;;;;;;21.37;19.43;;;17.80;99.90;;;;;;5049011;28;20214;-91
2021/06/25 10:51:38;;;;;;;21.47;19.37;;;17.70;99.90;;;;;;5065140;28;20185;-92
2021/06/25 10:54:13;;;;;;;21.27;19.43;;;17.90;99.90;;;;;;5063771;28;20192;-90
2021/06/25 10:56:47;;;;;;;21.57;19.70;;;17.80;98.70;;;;;;5059763;28;20192;-89
2021/06/25 10:59:28;;;;;;;21.83;19.87;;;17.90;98.50;;;;;;5065139;28;20196;-90
2021/06/25 11:01:57;;;;;;;23.73;21.43;;;18.00;99.70;;;;;;5044634;28;20765;-90
2021/06/25 11:04:37;;;;;;;23.93;21.70;;;18.00;98.70;;;;;;5050849;28;20191;-92
2021/06/25 11:07:15;;;;;;;24.10;21.80;;;18.00;99.60;;;;;;5041987;28;20218;-92
2021/06/25 11:09:57;;;;;;;25.17;22.73;;;18.10;98.10;;;;;;5048017;28;20185;-93
2021/06/25 11:12:26;;;;;;;22.90;20.90;;;17.90;98.10;;;;;;5043362;28;20676;-91
2021/06/25 11:15:12;;;;;;;24.93;22.60;;;18.00;98.00;;;;;;5067990;28;20232;-91
2021/06/25 11:17:55;;;;;;;23.37;21.23;;;17.90;98.70;;;;;;5063912;28;20210;-92
2021/06/25 11:20:28;;;;;;;24.00;21.60;;;18.00;96.60;;;;;;5038428;28;20263;-91
2021/06/25 11:23:06;;;;;;;23.97;21.90;;;17.90;96.80;;;;;;5047049;28;20191;-91
2021/06/25 11:25:53;;;;;;;23.80;21.73;;;18.20;97.00;;;;;;5064826;28;20214;-90
2021/06/25 11:28:24;;;;;;;28.00;25.23;;;18.20;97.50;;;;;;5045645;28;20228;-91
2021/06/25 11:31:09;;;;;;;27.17;24.63;;;18.40;96.10;;;;;;5046904;28;20187;-91
2021/06/25 11:33:41;;;;;;;25.63;23.40;;;18.40;95.10;;;;;;5048492;28;20196;-91
2021/06/25 11:36:27;;;;;;;28.17;25.57;;;18.20;93.30;;;;;;5064557;28;20188;-90
2021/06/25 11:38:56;;;;;;;26.07;23.67;;;18.20;94.30;;;;;;5071123;28;20196;-91
2021/06/25 11:41:29;;;;;;;27.97;25.37;;;18.20;92.00;;;;;;5062568;28;20774;-91
2021/06/25 11:43:57;;;;;;;28.13;25.43;;;18.30;93.10;;;;;;5068412;28;20175;-90
2021/06/25 11:46:23;;;;;;;26.57;24.20;;;18.40;92.10;;;;;;5052451;28;20223;-91
2021/06/25 11:48:50;;;;;;;28.27;25.53;;;18.70;89.80;;;;;;5065931;28;20241;-91
2021/06/25 11:51:19;;;;;;;27.53;24.73;;;18.70;90.50;;;;;;5070718;28;20197;-91
2021/06/25 11:53:47;;;;;;;27.40;24.83;;;18.80;89.20;;;;;;5043897;28;20193;-91
2021/06/25 11:56:23;;;;;;;28.87;26.17;;;19.00;89.70;;;;;;5050076;28;20184;-91
2021/06/25 11:59:08;;;;;;;27.27;24.73;;;19.30;89.20;;;;;;5050361;28;20188;-92
2021/06/25 12:01:53;;;;;;;27.98;25.30;;;19.70;88.00;;;;;;5046592;28;20221;-91
2021/06/25 12:04:39;;;;;;;27.17;24.67;;;20.00;85.30;;;;;;5063407;28;20187;-91
2021/06/25 12:07:07;;;;;;;25.05;22.80;;;20.30;82.90;;;;;;5068289;28;20203;-91
2021/06/25 12:09:48;;;;;;;26.42;24.02;;;20.50;81.70;;;;;;5073385;28;20210;-91
2021/06/25 12:12:35;;;;;;;27.58;25.08;;;20.90;82.00;;;;;;5064146;28;20588;-90
2021/06/25 12:15:05;;;;;;;27.40;24.88;;;21.30;78.80;;;;;;5064368;28;20180;-92
2021/06/25 12:17:43;;;;;;;30.25;27.55;;;21.30;77.70;;;;;;5062688;28;20250;-90
2021/06/25 12:20:14;;;;;;;31.58;28.50;;;21.00;77.00;;;;;;5068570;28;20187;-91
2021/06/25 12:22:56;;;;;;;29.85;27.10;;;20.90;76.00;;;;;;5062038;28;20219;-91
2021/06/25 12:25:31;;;;;;;29.40;26.65;;;21.10;77.30;;;;;;5055936;28;20652;-91
2021/06/25 12:27:56;;;;;;;30.02;27.02;;;21.00;77.50;;;;;;5035780;28;20206;-91
2021/06/25 12:30:23;;;;;;;28.90;26.10;;;20.80;76.70;;;;;;5045336;28;20188;-90
2021/06/25 12:33:03;;;;;;;29.65;26.95;;;20.90;77.00;;;;;;5063293;28;20529;-90
2021/06/25 12:35:32;;;;;;;29.73;26.92;;;21.10;76.70;;;;;;5061709;28;20548;-89
2021/06/25 12:37:57;;;;;;;29.50;26.70;;;21.10;73.60;;;;;;5043902;28;20799;-92
2021/06/25 12:40:59;;;;;;;30.55;27.85;;;21.10;73.50;;;;;;5063236;28;20191;-89
2021/06/25 12:43:30;;;;;;;31.50;28.52;;;21.20;73.60;;;;;;5080734;28;20188;-89
2021/06/25 12:46:14;;;;;;;29.02;26.50;;;21.30;73.40;;;;;;5048983;28;20247;-90
2021/06/25 12:48:47;;;;;;;28.27;25.63;;;21.50;72.30;;;;;;5044303;28;20218;-89
2021/06/25 12:51:34;;;;;;;27.98;25.20;;;21.60;72.10;;;;;;5059418;28;20179;-90
2021/06/25 12:54:00;;;;;;;28.42;25.67;;;21.70;72.00;;;;;;5042109;28;20211;-90